sensor_id;sensor_type;location;lat;lon;timestamp;P1;durP1;ratioP1;P2;durP2;ratioP2
4202;SDS011;2115;51.038;7.006;2023-08-31T00:34:50;15.20;;;4.10;;
4202;SDS011;2115;51.038;7.006;2023-08-31T00:37:16;9.45;;;4.80;;
4202;SDS011;2115;51.038;7.006;2023-08-31T00:39:41;22.10;;;4.90;;
4202;SDS011;2115;51.038;7.006;2023-08-31T00:44:34;18.10;;;4.90;;
4202;SDS011;2115;51.038;7.006;2023-08-31T00:47:00;13.80;;;3.60;;
4202;SDS011;2115;51.038;7.006;2023-08-31T00:54:18;10.80;;;3.80;;
4202;SDS011;2115;51.038;7.006;2023-08-31T01:06:53;7.80;;;3.30;;
4202;SDS011;2115;51.038;7.006;2023-08-31T01:12:18;10.60;;;3.85;;
4202;SDS011;2115;51.038;7.006;2023-08-31T01:20:03;7.90;;;3.40;;
4202;SDS011;2115;51.038;7.006;2023-08-31T01:25:09;8.40;;;4.10;;
4202;SDS011;2115;51.038;7.006;2023-08-31T01:27:36;9.30;;;3.50;;
4202;SDS011;2115;51.038;7.006;2023-08-31T01:30:03;18.90;;;4.10;;
4202;SDS011;2115;51.038;7.006;2023-08-31T01:43:10;5.70;;;3.30;;
4202;SDS011;2115;51.038;7.006;2023-08-31T01:45:36;12.50;;;4.30;;
4202;SDS011;2115;51.038;7.006;2023-08-31T01:48:03;14.60;;;4.90;;
4202;SDS011;2115;51.038;7.006;2023-08-31T01:50:29;11.80;;;5.65;;
4202;SDS011;2115;51.038;7.006;2023-08-31T01:52:54;11.60;;;3.90;;
4202;SDS011;2115;51.038;7.006;2023-08-31T01:55:21;18.00;;;5.50;;
4202;SDS011;2115;51.038;7.006;2023-08-31T01:57:47;9.50;;;4.63;;
4202;SDS011;2115;51.038;7.006;2023-08-31T02:00:13;9.80;;;4.97;;
4202;SDS011;2115;51.038;7.006;2023-08-31T02:02:40;18.83;;;6.00;;
4202;SDS011;2115;51.038;7.006;2023-08-31T02:05:06;8.57;;;4.90;;
4202;SDS011;2115;51.038;7.006;2023-08-31T02:07:32;8.47;;;5.23;;
4202;SDS011;2115;51.038;7.006;2023-08-31T02:09:58;14.63;;;5.63;;
4202;SDS011;2115;51.038;7.006;2023-08-31T02:12:23;12.10;;;5.95;;
4202;SDS011;2115;51.038;7.006;2023-08-31T02:14:49;11.83;;;5.40;;
4202;SDS011;2115;51.038;7.006;2023-08-31T02:17:15;12.25;;;5.40;;
4202;SDS011;2115;51.038;7.006;2023-08-31T02:19:40;12.13;;;5.10;;
4202;SDS011;2115;51.038;7.006;2023-08-31T02:22:06;11.80;;;5.87;;
4202;SDS011;2115;51.038;7.006;2023-08-31T02:24:31;10.30;;;4.50;;
4202;SDS011;2115;51.038;7.006;2023-08-31T02:26:57;10.37;;;5.20;;
4202;SDS011;2115;51.038;7.006;2023-08-31T02:29:22;9.90;;;5.03;;
4202;SDS011;2115;51.038;7.006;2023-08-31T02:31:48;8.37;;;4.60;;
4202;SDS011;2115;51.038;7.006;2023-08-31T02:34:13;10.27;;;4.53;;
4202;SDS011;2115;51.038;7.006;2023-08-31T02:36:39;8.67;;;5.13;;
4202;SDS011;2115;51.038;7.006;2023-08-31T02:39:04;8.63;;;4.10;;
4202;SDS011;2115;51.038;7.006;2023-08-31T02:41:31;10.90;;;4.00;;
4202;SDS011;2115;51.038;7.006;2023-08-31T02:44:01;10.17;;;4.83;;
4202;SDS011;2115;51.038;7.006;2023-08-31T02:46:27;9.17;;;4.27;;
4202;SDS011;2115;51.038;7.006;2023-08-31T02:48:53;9.67;;;4.43;;
4202;SDS011;2115;51.038;7.006;2023-08-31T02:51:18;7.85;;;4.30;;
4202;SDS011;2115;51.038;7.006;2023-08-31T02:53:44;11.17;;;4.47;;
4202;SDS011;2115;51.038;7.006;2023-08-31T02:56:09;15.10;;;4.73;;
4202;SDS011;2115;51.038;7.006;2023-08-31T02:58:35;16.80;;;5.45;;
4202;SDS011;2115;51.038;7.006;2023-08-31T03:01:07;7.63;;;5.00;;
4202;SDS011;2115;51.038;7.006;2023-08-31T03:03:34;7.47;;;4.93;;
4202;SDS011;2115;51.038;7.006;2023-08-31T03:06:00;14.60;;;5.67;;
4202;SDS011;2115;51.038;7.006;2023-08-31T03:08:25;16.60;;;5.97;;
4202;SDS011;2115;51.038;7.006;2023-08-31T03:10:51;7.67;;;4.80;;
4202;SDS011;2115;51.038;7.006;2023-08-31T03:13:18;16.80;;;5.93;;
4202;SDS011;2115;51.038;7.006;2023-08-31T03:15:43;14.70;;;5.25;;
4202;SDS011;2115;51.038;7.006;2023-08-31T03:18:09;12.97;;;6.57;;
4202;SDS011;2115;51.038;7.006;2023-08-31T03:20:35;14.40;;;6.07;;
4202;SDS011;2115;51.038;7.006;2023-08-31T03:23:00;13.40;;;5.10;;
4202;SDS011;2115;51.038;7.006;2023-08-31T03:25:27;15.43;;;4.97;;
4202;SDS011;2115;51.038;7.006;2023-08-31T03:27:52;14.93;;;5.80;;
4202;SDS011;2115;51.038;7.006;2023-08-31T03:30:18;15.43;;;5.90;;
4202;SDS011;2115;51.038;7.006;2023-08-31T03:32:43;14.63;;;6.27;;
4202;SDS011;2115;51.038;7.006;2023-08-31T03:35:09;18.50;;;6.70;;
4202;SDS011;2115;51.038;7.006;2023-08-31T03:37:34;10.00;;;5.40;;
4202;SDS011;2115;51.038;7.006;2023-08-31T03:40:00;10.67;;;5.80;;
4202;SDS011;2115;51.038;7.006;2023-08-31T03:42:26;13.17;;;6.47;;
4202;SDS011;2115;51.038;7.006;2023-08-31T03:44:51;8.40;;;4.77;;
4202;SDS011;2115;51.038;7.006;2023-08-31T03:47:17;17.43;;;6.23;;
4202;SDS011;2115;51.038;7.006;2023-08-31T03:49:42;12.47;;;5.57;;
4202;SDS011;2115;51.038;7.006;2023-08-31T03:52:08;13.87;;;5.70;;
4202;SDS011;2115;51.038;7.006;2023-08-31T03:54:33;10.30;;;5.10;;
4202;SDS011;2115;51.038;7.006;2023-08-31T03:56:59;8.13;;;4.93;;
4202;SDS011;2115;51.038;7.006;2023-08-31T03:59:25;32.33;;;5.50;;
4202;SDS011;2115;51.038;7.006;2023-08-31T04:01:50;8.20;;;5.13;;
4202;SDS011;2115;51.038;7.006;2023-08-31T04:04:16;10.87;;;5.00;;
4202;SDS011;2115;51.038;7.006;2023-08-31T04:06:42;7.23;;;4.40;;
4202;SDS011;2115;51.038;7.006;2023-08-31T04:09:08;18.07;;;5.00;;
4202;SDS011;2115;51.038;7.006;2023-08-31T04:11:33;8.80;;;4.07;;
4202;SDS011;2115;51.038;7.006;2023-08-31T04:13:59;17.40;;;4.90;;
4202;SDS011;2115;51.038;7.006;2023-08-31T04:16:24;10.03;;;4.30;;
4202;SDS011;2115;51.038;7.006;2023-08-31T04:18:50;10.47;;;4.50;;
4202;SDS011;2115;51.038;7.006;2023-08-31T04:21:19;8.50;;;3.93;;
4202;SDS011;2115;51.038;7.006;2023-08-31T04:23:45;14.40;;;5.17;;
4202;SDS011;2115;51.038;7.006;2023-08-31T04:26:11;11.80;;;4.63;;
4202;SDS011;2115;51.038;7.006;2023-08-31T04:28:38;8.43;;;4.30;;
4202;SDS011;2115;51.038;7.006;2023-08-31T04:31:05;8.23;;;4.10;;
4202;SDS011;2115;51.038;7.006;2023-08-31T04:33:32;16.40;;;4.80;;
4202;SDS011;2115;51.038;7.006;2023-08-31T04:35:59;10.60;;;4.30;;
4202;SDS011;2115;51.038;7.006;2023-08-31T04:38:26;10.10;;;4.63;;
4202;SDS011;2115;51.038;7.006;2023-08-31T04:40:52;10.10;;;3.97;;
4202;SDS011;2115;51.038;7.006;2023-08-31T04:43:17;12.63;;;4.10;;
4202;SDS011;2115;51.038;7.006;2023-08-31T04:45:43;9.43;;;3.80;;
4202;SDS011;2115;51.038;7.006;2023-08-31T04:48:08;8.10;;;3.97;;
4202;SDS011;2115;51.038;7.006;2023-08-31T04:50:34;12.20;;;4.87;;
4202;SDS011;2115;51.038;7.006;2023-08-31T04:53:00;12.43;;;3.20;;
4202;SDS011;2115;51.038;7.006;2023-08-31T04:55:25;6.53;;;3.33;;
4202;SDS011;2115;51.038;7.006;2023-08-31T04:57:51;7.93;;;4.10;;
4202;SDS011;2115;51.038;7.006;2023-08-31T05:00:16;8.60;;;3.53;;
4202;SDS011;2115;51.038;7.006;2023-08-31T05:02:42;8.50;;;4.30;;
4202;SDS011;2115;51.038;7.006;2023-08-31T05:05:08;7.17;;;3.73;;
4202;SDS011;2115;51.038;7.006;2023-08-31T05:07:34;5.90;;;4.10;;
4202;SDS011;2115;51.038;7.006;2023-08-31T05:09:59;10.60;;;4.33;;
4202;SDS011;2115;51.038;7.006;2023-08-31T05:12:25;13.97;;;4.70;;
4202;SDS011;2115;51.038;7.006;2023-08-31T05:14:50;10.53;;;5.00;;
4202;SDS011;2115;51.038;7.006;2023-08-31T05:17:16;12.53;;;5.60;;
4202;SDS011;2115;51.038;7.006;2023-08-31T05:19:41;14.80;;;5.77;;
4202;SDS011;2115;51.038;7.006;2023-08-31T05:22:07;11.20;;;5.27;;
4202;SDS011;2115;51.038;7.006;2023-08-31T05:24:32;20.53;;;7.00;;
4202;SDS011;2115;51.038;7.006;2023-08-31T05:26:58;9.30;;;5.33;;
4202;SDS011;2115;51.038;7.006;2023-08-31T05:29:23;11.90;;;5.13;;
4202;SDS011;2115;51.038;7.006;2023-08-31T05:31:51;12.13;;;5.20;;
4202;SDS011;2115;51.038;7.006;2023-08-31T05:34:17;18.30;;;6.03;;
4202;SDS011;2115;51.038;7.006;2023-08-31T05:36:43;17.93;;;6.53;;
4202;SDS011;2115;51.038;7.006;2023-08-31T05:39:09;13.67;;;5.23;;
4202;SDS011;2115;51.038;7.006;2023-08-31T05:41:34;11.00;;;5.40;;
4202;SDS011;2115;51.038;7.006;2023-08-31T05:44:00;9.53;;;4.50;;
4202;SDS011;2115;51.038;7.006;2023-08-31T05:46:27;14.50;;;5.40;;
4202;SDS011;2115;51.038;7.006;2023-08-31T05:51:28;12.50;;;6.73;;
4202;SDS011;2115;51.038;7.006;2023-08-31T05:53:54;11.00;;;6.27;;
4202;SDS011;2115;51.038;7.006;2023-08-31T05:56:48;9.70;;;5.50;;
4202;SDS011;2115;51.038;7.006;2023-08-31T05:59:23;9.43;;;5.00;;
4202;SDS011;2115;51.038;7.006;2023-08-31T06:01:49;10.13;;;5.00;;
4202;SDS011;2115;51.038;7.006;2023-08-31T06:04:17;14.33;;;6.90;;
4202;SDS011;2115;51.038;7.006;2023-08-31T06:06:43;18.50;;;5.83;;
4202;SDS011;2115;51.038;7.006;2023-08-31T06:09:15;18.80;;;5.43;;
4202;SDS011;2115;51.038;7.006;2023-08-31T06:11:41;14.60;;;6.20;;
4202;SDS011;2115;51.038;7.006;2023-08-31T06:14:09;9.07;;;4.93;;
4202;SDS011;2115;51.038;7.006;2023-08-31T06:16:35;13.83;;;5.27;;
4202;SDS011;2115;51.038;7.006;2023-08-31T06:19:03;10.30;;;5.50;;
4202;SDS011;2115;51.038;7.006;2023-08-31T06:21:29;12.47;;;5.50;;
4202;SDS011;2115;51.038;7.006;2023-08-31T06:23:58;13.00;;;5.67;;
4202;SDS011;2115;51.038;7.006;2023-08-31T06:26:24;11.87;;;5.53;;
4202;SDS011;2115;51.038;7.006;2023-08-31T06:28:49;12.03;;;4.20;;
4202;SDS011;2115;51.038;7.006;2023-08-31T06:31:16;9.10;;;5.37;;
4202;SDS011;2115;51.038;7.006;2023-08-31T06:33:44;10.43;;;4.30;;
4202;SDS011;2115;51.038;7.006;2023-08-31T06:36:10;11.50;;;4.00;;
4202;SDS011;2115;51.038;7.006;2023-08-31T06:38:36;15.10;;;4.50;;
4202;SDS011;2115;51.038;7.006;2023-08-31T06:41:02;9.07;;;4.07;;
4202;SDS011;2115;51.038;7.006;2023-08-31T06:49:19;8.47;;;3.63;;
4202;SDS011;2115;51.038;7.006;2023-08-31T06:51:49;7.60;;;4.00;;
4202;SDS011;2115;51.038;7.006;2023-08-31T06:54:16;9.00;;;3.80;;
4202;SDS011;2115;51.038;7.006;2023-08-31T06:56:42;16.37;;;4.60;;
4202;SDS011;2115;51.038;7.006;2023-08-31T06:59:07;12.00;;;4.30;;
4202;SDS011;2115;51.038;7.006;2023-08-31T07:01:34;12.93;;;3.47;;
4202;SDS011;2115;51.038;7.006;2023-08-31T07:04:00;20.07;;;4.77;;
4202;SDS011;2115;51.038;7.006;2023-08-31T07:06:26;9.10;;;3.80;;
4202;SDS011;2115;51.038;7.006;2023-08-31T07:08:52;7.17;;;3.43;;
4202;SDS011;2115;51.038;7.006;2023-08-31T07:11:18;9.10;;;4.20;;
4202;SDS011;2115;51.038;7.006;2023-08-31T07:13:44;10.03;;;4.13;;
4202;SDS011;2115;51.038;7.006;2023-08-31T07:16:10;9.37;;;4.00;;
4202;SDS011;2115;51.038;7.006;2023-08-31T07:18:36;14.30;;;3.93;;
4202;SDS011;2115;51.038;7.006;2023-08-31T07:21:03;12.60;;;3.60;;
4202;SDS011;2115;51.038;7.006;2023-08-31T07:23:33;9.13;;;3.23;;
4202;SDS011;2115;51.038;7.006;2023-08-31T07:25:59;9.40;;;3.33;;
4202;SDS011;2115;51.038;7.006;2023-08-31T07:28:25;16.57;;;4.17;;
4202;SDS011;2115;51.038;7.006;2023-08-31T07:31:05;8.57;;;2.80;;
4202;SDS011;2115;51.038;7.006;2023-08-31T07:33:31;7.53;;;2.17;;
4202;SDS011;2115;51.038;7.006;2023-08-31T07:35:58;4.60;;;2.10;;
4202;SDS011;2115;51.038;7.006;2023-08-31T07:38:24;6.20;;;2.07;;
4202;SDS011;2115;51.038;7.006;2023-08-31T07:40:52;5.47;;;2.60;;
4202;SDS011;2115;51.038;7.006;2023-08-31T07:43:18;6.93;;;2.50;;
4202;SDS011;2115;51.038;7.006;2023-08-31T07:45:44;14.50;;;3.00;;
4202;SDS011;2115;51.038;7.006;2023-08-31T07:48:09;7.40;;;2.30;;
4202;SDS011;2115;51.038;7.006;2023-08-31T07:50:39;6.93;;;2.90;;
4202;SDS011;2115;51.038;7.006;2023-08-31T07:53:06;7.07;;;2.00;;
4202;SDS011;2115;51.038;7.006;2023-08-31T07:55:32;12.50;;;2.60;;
4202;SDS011;2115;51.038;7.006;2023-08-31T07:57:58;13.00;;;3.13;;
4202;SDS011;2115;51.038;7.006;2023-08-31T08:00:23;14.10;;;3.20;;
4202;SDS011;2115;51.038;7.006;2023-08-31T08:02:49;8.80;;;2.43;;
4202;SDS011;2115;51.038;7.006;2023-08-31T08:05:15;12.37;;;2.97;;
4202;SDS011;2115;51.038;7.006;2023-08-31T08:07:41;22.37;;;3.57;;
4202;SDS011;2115;51.038;7.006;2023-08-31T08:10:11;12.40;;;2.53;;
4202;SDS011;2115;51.038;7.006;2023-08-31T08:12:38;12.33;;;2.30;;
4202;SDS011;2115;51.038;7.006;2023-08-31T08:15:04;6.17;;;2.37;;
4202;SDS011;2115;51.038;7.006;2023-08-31T08:17:34;6.27;;;1.93;;
4202;SDS011;2115;51.038;7.006;2023-08-31T08:20:00;7.83;;;4.50;;
4202;SDS011;2115;51.038;7.006;2023-08-31T08:22:25;9.40;;;2.30;;
4202;SDS011;2115;51.038;7.006;2023-08-31T08:24:51;5.90;;;3.03;;
4202;SDS011;2115;51.038;7.006;2023-08-31T08:27:17;8.47;;;3.00;;
4202;SDS011;2115;51.038;7.006;2023-08-31T08:29:44;13.97;;;2.23;;
4202;SDS011;2115;51.038;7.006;2023-08-31T08:32:10;9.27;;;2.20;;
4202;SDS011;2115;51.038;7.006;2023-08-31T08:34:36;12.73;;;2.87;;
4202;SDS011;2115;51.038;7.006;2023-08-31T08:37:02;14.93;;;2.93;;
4202;SDS011;2115;51.038;7.006;2023-08-31T08:39:31;11.03;;;2.30;;
4202;SDS011;2115;51.038;7.006;2023-08-31T08:42:05;4.20;;;2.43;;
4202;SDS011;2115;51.038;7.006;2023-08-31T08:44:32;13.23;;;2.40;;
4202;SDS011;2115;51.038;7.006;2023-08-31T08:47:01;12.40;;;2.37;;
4202;SDS011;2115;51.038;7.006;2023-08-31T08:49:29;7.77;;;2.07;;
4202;SDS011;2115;51.038;7.006;2023-08-31T08:51:57;8.80;;;2.80;;
4202;SDS011;2115;51.038;7.006;2023-08-31T08:54:23;4.83;;;2.17;;
4202;SDS011;2115;51.038;7.006;2023-08-31T08:56:52;13.70;;;1.83;;
4202;SDS011;2115;51.038;7.006;2023-08-31T08:59:18;4.63;;;2.07;;
4202;SDS011;2115;51.038;7.006;2023-08-31T09:04:51;4.90;;;2.10;;
4202;SDS011;2115;51.038;7.006;2023-08-31T09:07:20;5.60;;;1.77;;
4202;SDS011;2115;51.038;7.006;2023-08-31T09:09:50;11.37;;;2.60;;
4202;SDS011;2115;51.038;7.006;2023-08-31T09:12:17;8.03;;;2.07;;
4202;SDS011;2115;51.038;7.006;2023-08-31T09:14:42;6.20;;;2.50;;
4202;SDS011;2115;51.038;7.006;2023-08-31T09:17:08;12.43;;;2.47;;
4202;SDS011;2115;51.038;7.006;2023-08-31T09:19:34;6.77;;;2.00;;
4202;SDS011;2115;51.038;7.006;2023-08-31T09:22:00;17.23;;;2.20;;
4202;SDS011;2115;51.038;7.006;2023-08-31T09:24:27;8.00;;;2.07;;
4202;SDS011;2115;51.038;7.006;2023-08-31T09:26:53;7.80;;;2.40;;
4202;SDS011;2115;51.038;7.006;2023-08-31T09:29:20;2.83;;;1.53;;
4202;SDS011;2115;51.038;7.006;2023-08-31T09:31:46;12.00;;;2.40;;
4202;SDS011;2115;51.038;7.006;2023-08-31T09:34:12;7.10;;;2.07;;
4202;SDS011;2115;51.038;7.006;2023-08-31T09:36:39;3.27;;;1.70;;
4202;SDS011;2115;51.038;7.006;2023-08-31T09:39:08;11.33;;;2.00;;
4202;SDS011;2115;51.038;7.006;2023-08-31T09:41:53;8.83;;;2.17;;
4202;SDS011;2115;51.038;7.006;2023-08-31T09:44:19;8.93;;;2.90;;
4202;SDS011;2115;51.038;7.006;2023-08-31T09:46:46;7.20;;;1.80;;
4202;SDS011;2115;51.038;7.006;2023-08-31T09:49:13;3.63;;;1.80;;
4202;SDS011;2115;51.038;7.006;2023-08-31T09:51:41;6.27;;;2.30;;
4202;SDS011;2115;51.038;7.006;2023-08-31T09:54:09;6.30;;;2.30;;
4202;SDS011;2115;51.038;7.006;2023-08-31T09:56:42;4.67;;;1.63;;
4202;SDS011;2115;51.038;7.006;2023-08-31T09:59:12;8.30;;;2.00;;
4202;SDS011;2115;51.038;7.006;2023-08-31T10:01:39;4.87;;;2.00;;
4202;SDS011;2115;51.038;7.006;2023-08-31T10:04:05;5.57;;;2.40;;
4202;SDS011;2115;51.038;7.006;2023-08-31T10:06:33;9.63;;;2.20;;
4202;SDS011;2115;51.038;7.006;2023-08-31T10:09:00;5.87;;;1.80;;
4202;SDS011;2115;51.038;7.006;2023-08-31T10:11:27;11.73;;;3.50;;
4202;SDS011;2115;51.038;7.006;2023-08-31T10:13:54;13.03;;;2.60;;
4202;SDS011;2115;51.038;7.006;2023-08-31T10:16:22;9.83;;;2.30;;
4202;SDS011;2115;51.038;7.006;2023-08-31T10:22:11;7.73;;;2.67;;
4202;SDS011;2115;51.038;7.006;2023-08-31T10:25:10;6.50;;;2.73;;
4202;SDS011;2115;51.038;7.006;2023-08-31T10:48:52;8.33;;;2.20;;
4202;SDS011;2115;51.038;7.006;2023-08-31T10:51:24;12.00;;;1.93;;
4202;SDS011;2115;51.038;7.006;2023-08-31T10:53:51;12.37;;;2.50;;
4202;SDS011;2115;51.038;7.006;2023-08-31T10:56:18;7.70;;;2.43;;
4202;SDS011;2115;51.038;7.006;2023-08-31T10:58:59;7.93;;;2.30;;
4202;SDS011;2115;51.038;7.006;2023-08-31T11:04:20;8.87;;;2.10;;
4202;SDS011;2115;51.038;7.006;2023-08-31T11:07:04;8.00;;;1.70;;
4202;SDS011;2115;51.038;7.006;2023-08-31T11:09:41;13.00;;;2.40;;
4202;SDS011;2115;51.038;7.006;2023-08-31T11:12:08;4.10;;;2.07;;
4202;SDS011;2115;51.038;7.006;2023-08-31T11:14:34;7.60;;;1.50;;
4202;SDS011;2115;51.038;7.006;2023-08-31T11:17:00;5.47;;;1.93;;
4202;SDS011;2115;51.038;7.006;2023-08-31T11:19:26;9.47;;;2.37;;
4202;SDS011;2115;51.038;7.006;2023-08-31T11:21:52;8.63;;;2.17;;
4202;SDS011;2115;51.038;7.006;2023-08-31T11:24:17;4.70;;;1.70;;
4202;SDS011;2115;51.038;7.006;2023-08-31T11:26:43;8.13;;;2.17;;
4202;SDS011;2115;51.038;7.006;2023-08-31T11:29:09;3.40;;;1.63;;
4202;SDS011;2115;51.038;7.006;2023-08-31T11:31:38;5.87;;;1.50;;
4202;SDS011;2115;51.038;7.006;2023-08-31T11:34:05;4.90;;;1.83;;
4202;SDS011;2115;51.038;7.006;2023-08-31T11:36:31;14.47;;;2.37;;
4202;SDS011;2115;51.038;7.006;2023-08-31T11:38:57;6.57;;;1.90;;
4202;SDS011;2115;51.038;7.006;2023-08-31T11:41:23;6.40;;;2.27;;
4202;SDS011;2115;51.038;7.006;2023-08-31T11:43:48;6.17;;;1.87;;
4202;SDS011;2115;51.038;7.006;2023-08-31T11:46:16;11.03;;;2.53;;
4202;SDS011;2115;51.038;7.006;2023-08-31T11:48:43;9.53;;;2.53;;
4202;SDS011;2115;51.038;7.006;2023-08-31T11:51:10;21.70;;;4.17;;
4202;SDS011;2115;51.038;7.006;2023-08-31T11:53:36;5.47;;;2.13;;
4202;SDS011;2115;51.038;7.006;2023-08-31T11:56:02;6.47;;;2.10;;
4202;SDS011;2115;51.038;7.006;2023-08-31T11:58:28;19.37;;;3.40;;
4202;SDS011;2115;51.038;7.006;2023-08-31T12:00:57;9.60;;;2.53;;
4202;SDS011;2115;51.038;7.006;2023-08-31T12:03:23;6.97;;;2.30;;
4202;SDS011;2115;51.038;7.006;2023-08-31T12:05:51;8.20;;;2.10;;
4202;SDS011;2115;51.038;7.006;2023-08-31T12:08:26;7.53;;;1.70;;
4202;SDS011;2115;51.038;7.006;2023-08-31T12:10:52;7.43;;;2.67;;
4202;SDS011;2115;51.038;7.006;2023-08-31T12:13:18;15.67;;;3.07;;
4202;SDS011;2115;51.038;7.006;2023-08-31T12:15:44;11.50;;;2.43;;
4202;SDS011;2115;51.038;7.006;2023-08-31T12:18:13;7.53;;;2.20;;
4202;SDS011;2115;51.038;7.006;2023-08-31T12:20:45;8.03;;;2.30;;
4202;SDS011;2115;51.038;7.006;2023-08-31T12:23:11;10.27;;;3.03;;
4202;SDS011;2115;51.038;7.006;2023-08-31T12:25:44;7.73;;;2.80;;
4202;SDS011;2115;51.038;7.006;2023-08-31T12:28:17;8.97;;;2.30;;
4202;SDS011;2115;51.038;7.006;2023-08-31T12:30:46;5.83;;;2.40;;
4202;SDS011;2115;51.038;7.006;2023-08-31T12:33:16;6.33;;;2.30;;
4202;SDS011;2115;51.038;7.006;2023-08-31T12:35:42;6.73;;;2.27;;
4202;SDS011;2115;51.038;7.006;2023-08-31T12:38:08;6.47;;;2.20;;
4202;SDS011;2115;51.038;7.006;2023-08-31T12:40:34;7.40;;;2.17;;
4202;SDS011;2115;51.038;7.006;2023-08-31T12:42:59;7.07;;;2.20;;
4202;SDS011;2115;51.038;7.006;2023-08-31T12:45:25;6.73;;;2.33;;
4202;SDS011;2115;51.038;7.006;2023-08-31T12:47:50;6.17;;;2.40;;
4202;SDS011;2115;51.038;7.006;2023-08-31T12:50:16;9.90;;;2.70;;
4202;SDS011;2115;51.038;7.006;2023-08-31T12:52:42;7.90;;;2.23;;
4202;SDS011;2115;51.038;7.006;2023-08-31T12:55:14;3.83;;;1.30;;
4202;SDS011;2115;51.038;7.006;2023-08-31T12:57:41;7.37;;;2.07;;
4202;SDS011;2115;51.038;7.006;2023-08-31T13:00:07;12.60;;;2.00;;
4202;SDS011;2115;51.038;7.006;2023-08-31T13:02:40;3.00;;;1.43;;
4202;SDS011;2115;51.038;7.006;2023-08-31T13:05:07;3.40;;;1.30;;
4202;SDS011;2115;51.038;7.006;2023-08-31T13:07:36;8.83;;;2.20;;
4202;SDS011;2115;51.038;7.006;2023-08-31T13:10:02;5.20;;;1.60;;
4202;SDS011;2115;51.038;7.006;2023-08-31T13:12:31;5.43;;;1.80;;
4202;SDS011;2115;51.038;7.006;2023-08-31T13:15:00;5.63;;;1.90;;
4202;SDS011;2115;51.038;7.006;2023-08-31T13:17:26;5.20;;;2.23;;
4202;SDS011;2115;51.038;7.006;2023-08-31T13:19:53;7.63;;;1.80;;
4202;SDS011;2115;51.038;7.006;2023-08-31T13:22:19;10.33;;;2.10;;
4202;SDS011;2115;51.038;7.006;2023-08-31T13:24:45;7.50;;;1.90;;
4202;SDS011;2115;51.038;7.006;2023-08-31T13:27:11;7.23;;;2.50;;
4202;SDS011;2115;51.038;7.006;2023-08-31T13:29:36;8.20;;;2.20;;
4202;SDS011;2115;51.038;7.006;2023-08-31T13:32:02;4.27;;;2.10;;
4202;SDS011;2115;51.038;7.006;2023-08-31T13:34:30;8.30;;;2.13;;
4202;SDS011;2115;51.038;7.006;2023-08-31T13:36:56;12.30;;;2.77;;
4202;SDS011;2115;51.038;7.006;2023-08-31T13:39:22;6.73;;;2.63;;
4202;SDS011;2115;51.038;7.006;2023-08-31T13:41:49;6.90;;;2.70;;
4202;SDS011;2115;51.038;7.006;2023-08-31T13:44:16;8.50;;;2.30;;
4202;SDS011;2115;51.038;7.006;2023-08-31T13:46:43;7.10;;;1.77;;
4202;SDS011;2115;51.038;7.006;2023-08-31T13:49:08;9.43;;;2.77;;
4202;SDS011;2115;51.038;7.006;2023-08-31T13:51:33;5.67;;;2.33;;
4202;SDS011;2115;51.038;7.006;2023-08-31T13:53:59;12.23;;;2.10;;
4202;SDS011;2115;51.038;7.006;2023-08-31T13:56:24;5.60;;;1.80;;
4202;SDS011;2115;51.038;7.006;2023-08-31T13:58:50;7.80;;;2.30;;
4202;SDS011;2115;51.038;7.006;2023-08-31T14:01:16;8.90;;;2.10;;
4202;SDS011;2115;51.038;7.006;2023-08-31T14:03:41;9.07;;;1.87;;
4202;SDS011;2115;51.038;7.006;2023-08-31T14:06:07;10.80;;;2.10;;
4202;SDS011;2115;51.038;7.006;2023-08-31T14:08:33;5.97;;;2.20;;
4202;SDS011;2115;51.038;7.006;2023-08-31T14:10:59;7.70;;;2.07;;
4202;SDS011;2115;51.038;7.006;2023-08-31T14:13:24;5.73;;;2.10;;
4202;SDS011;2115;51.038;7.006;2023-08-31T14:15:50;6.03;;;1.80;;
4202;SDS011;2115;51.038;7.006;2023-08-31T14:18:15;5.43;;;2.00;;
4202;SDS011;2115;51.038;7.006;2023-08-31T14:20:41;5.63;;;2.23;;
4202;SDS011;2115;51.038;7.006;2023-08-31T14:23:07;7.60;;;1.97;;
4202;SDS011;2115;51.038;7.006;2023-08-31T14:25:36;4.47;;;1.77;;
4202;SDS011;2115;51.038;7.006;2023-08-31T14:28:03;8.10;;;2.30;;
4202;SDS011;2115;51.038;7.006;2023-08-31T14:30:30;7.43;;;2.30;;
4202;SDS011;2115;51.038;7.006;2023-08-31T14:32:55;12.60;;;2.40;;
4202;SDS011;2115;51.038;7.006;2023-08-31T14:35:37;12.97;;;3.53;;
4202;SDS011;2115;51.038;7.006;2023-08-31T14:38:04;8.23;;;2.30;;
4202;SDS011;2115;51.038;7.006;2023-08-31T14:40:29;19.13;;;3.90;;
4202;SDS011;2115;51.038;7.006;2023-08-31T14:42:55;16.23;;;3.13;;
4202;SDS011;2115;51.038;7.006;2023-08-31T14:45:20;16.20;;;2.30;;
4202;SDS011;2115;51.038;7.006;2023-08-31T14:47:46;9.67;;;2.57;;
4202;SDS011;2115;51.038;7.006;2023-08-31T14:50:12;9.00;;;2.60;;
4202;SDS011;2115;51.038;7.006;2023-08-31T14:52:37;8.20;;;2.77;;
4202;SDS011;2115;51.038;7.006;2023-08-31T14:55:03;6.10;;;2.53;;
4202;SDS011;2115;51.038;7.006;2023-08-31T14:57:29;10.33;;;3.33;;
4202;SDS011;2115;51.038;7.006;2023-08-31T14:59:55;5.53;;;2.10;;
4202;SDS011;2115;51.038;7.006;2023-08-31T15:02:23;8.50;;;2.73;;
4202;SDS011;2115;51.038;7.006;2023-08-31T15:04:49;5.77;;;2.40;;
4202;SDS011;2115;51.038;7.006;2023-08-31T15:07:15;7.10;;;2.30;;
4202;SDS011;2115;51.038;7.006;2023-08-31T15:09:41;11.10;;;2.73;;
4202;SDS011;2115;51.038;7.006;2023-08-31T15:12:08;3.70;;;1.80;;
4202;SDS011;2115;51.038;7.006;2023-08-31T15:14:34;11.53;;;3.13;;
4202;SDS011;2115;51.038;7.006;2023-08-31T15:16:59;7.97;;;2.60;;
4202;SDS011;2115;51.038;7.006;2023-08-31T15:19:25;6.60;;;2.10;;
4202;SDS011;2115;51.038;7.006;2023-08-31T15:21:50;7.27;;;2.30;;
4202;SDS011;2115;51.038;7.006;2023-08-31T15:24:16;10.93;;;2.57;;
4202;SDS011;2115;51.038;7.006;2023-08-31T15:26:41;5.70;;;2.53;;
4202;SDS011;2115;51.038;7.006;2023-08-31T15:29:08;7.50;;;2.77;;
4202;SDS011;2115;51.038;7.006;2023-08-31T15:31:34;4.60;;;1.80;;
4202;SDS011;2115;51.038;7.006;2023-08-31T15:33:59;5.53;;;2.20;;
4202;SDS011;2115;51.038;7.006;2023-08-31T15:36:25;6.30;;;2.50;;
4202;SDS011;2115;51.038;7.006;2023-08-31T15:38:50;4.60;;;1.97;;
4202;SDS011;2115;51.038;7.006;2023-08-31T15:41:16;8.17;;;2.30;;
4202;SDS011;2115;51.038;7.006;2023-08-31T15:43:41;7.23;;;2.03;;
4202;SDS011;2115;51.038;7.006;2023-08-31T15:46:07;9.43;;;2.33;;
4202;SDS011;2115;51.038;7.006;2023-08-31T15:48:33;5.80;;;2.17;;
4202;SDS011;2115;51.038;7.006;2023-08-31T15:50:59;5.83;;;2.60;;
4202;SDS011;2115;51.038;7.006;2023-08-31T15:53:25;5.67;;;2.23;;
4202;SDS011;2115;51.038;7.006;2023-08-31T15:55:53;7.30;;;2.50;;
4202;SDS011;2115;51.038;7.006;2023-08-31T15:58:19;6.43;;;2.70;;
4202;SDS011;2115;51.038;7.006;2023-08-31T16:00:45;6.73;;;2.07;;
4202;SDS011;2115;51.038;7.006;2023-08-31T16:03:11;6.17;;;2.07;;
4202;SDS011;2115;51.038;7.006;2023-08-31T16:05:36;11.67;;;2.90;;
4202;SDS011;2115;51.038;7.006;2023-08-31T16:08:03;7.67;;;2.03;;
4202;SDS011;2115;51.038;7.006;2023-08-31T16:10:29;7.60;;;2.13;;
4202;SDS011;2115;51.038;7.006;2023-08-31T16:12:55;9.77;;;2.10;;
4202;SDS011;2115;51.038;7.006;2023-08-31T16:15:21;7.03;;;1.77;;
4202;SDS011;2115;51.038;7.006;2023-08-31T16:17:47;3.40;;;1.80;;
4202;SDS011;2115;51.038;7.006;2023-08-31T16:20:13;8.33;;;2.27;;
4202;SDS011;2115;51.038;7.006;2023-08-31T16:22:39;8.60;;;2.47;;
4202;SDS011;2115;51.038;7.006;2023-08-31T16:25:05;5.23;;;2.03;;
4202;SDS011;2115;51.038;7.006;2023-08-31T16:27:31;4.17;;;1.60;;
4202;SDS011;2115;51.038;7.006;2023-08-31T16:29:57;11.80;;;2.70;;
4202;SDS011;2115;51.038;7.006;2023-08-31T16:32:24;10.10;;;2.37;;
4202;SDS011;2115;51.038;7.006;2023-08-31T16:34:53;7.20;;;2.47;;
4202;SDS011;2115;51.038;7.006;2023-08-31T16:37:19;7.13;;;2.50;;
4202;SDS011;2115;51.038;7.006;2023-08-31T16:39:44;5.70;;;2.23;;
4202;SDS011;2115;51.038;7.006;2023-08-31T16:42:10;12.43;;;2.27;;
4202;SDS011;2115;51.038;7.006;2023-08-31T16:44:39;13.23;;;5.00;;
4202;SDS011;2115;51.038;7.006;2023-08-31T16:47:04;13.37;;;2.87;;
4202;SDS011;2115;51.038;7.006;2023-08-31T16:49:30;9.33;;;2.93;;
4202;SDS011;2115;51.038;7.006;2023-08-31T16:51:56;11.43;;;2.87;;
4202;SDS011;2115;51.038;7.006;2023-08-31T16:54:21;8.73;;;3.00;;
4202;SDS011;2115;51.038;7.006;2023-08-31T16:56:48;10.50;;;2.30;;
4202;SDS011;2115;51.038;7.006;2023-08-31T16:59:15;9.80;;;2.90;;